VLG2246 LEMD-LXGB
Flight info
| Callsign | VLG2246 |
|---|---|
| Flight time | 0h 50m |
| Altitude | 37000 |
| Route | VTB N10 INPAN DCT MOCEQ DCT VULPE N864 PIMOS |
| Aircraft | A320/M-SDE3FGHIRWY/LB1 |
Departure
| Time | 2026-05-06 03:22 |
|---|---|
| Airport | Adolfo Suárez Madrid–Barajas Airport (LEMD) |
Arrival
| Time | 2026-05-06 04:12 |
|---|---|
| Airport | Gibraltar Airport (LXGB) |
| Time | Latitude | Longitude | Altitude | Speed | Heading |
|---|---|---|---|---|---|
| 2026-05-06 03:22 | 40.43969 | -3.55326 | 16953 ft | 366 kts | 179° |
| 2026-05-06 03:22 | 40.41426 | -3.54993 | 17551 ft | 370 kts | 179° |
| 2026-05-06 03:22 | 40.38847 | -3.54652 | 18167 ft | 373 kts | 180° |
| 2026-05-06 03:22 | 40.36248 | -3.54304 | 18716 ft | 377 kts | 180° |
| 2026-05-06 03:23 | 40.33632 | -3.53948 | 19287 ft | 380 kts | 180° |
| 2026-05-06 03:23 | 40.30981 | -3.53583 | 19877 ft | 383 kts | 180° |
| 2026-05-06 03:23 | 40.28322 | -3.53218 | 20448 ft | 386 kts | 180° |
| 2026-05-06 03:23 | 40.25641 | -3.52849 | 20999 ft | 389 kts | 180° |
| 2026-05-06 03:24 | 40.22943 | -3.52479 | 21550 ft | 392 kts | 180° |
| 2026-05-06 03:24 | 40.20254 | -3.52112 | 22084 ft | 394 kts | 180° |
| 2026-05-06 03:24 | 40.17511 | -3.51741 | 22626 ft | 397 kts | 181° |
| 2026-05-06 03:24 | 40.14754 | -3.51370 | 23162 ft | 400 kts | 181° |
| 2026-05-06 03:25 | 40.11975 | -3.50993 | 23670 ft | 403 kts | 181° |
| 2026-05-06 03:25 | 40.09172 | -3.50612 | 24115 ft | 406 kts | 181° |
| 2026-05-06 03:25 | 40.06358 | -3.50229 | 24557 ft | 408 kts | 181° |
| 2026-05-06 03:25 | 40.03525 | -3.49847 | 24990 ft | 410 kts | 181° |
| 2026-05-06 03:26 | 40.00685 | -3.49464 | 25417 ft | 412 kts | 181° |
| 2026-05-06 03:26 | 39.97825 | -3.49078 | 25830 ft | 414 kts | 181° |
| 2026-05-06 03:26 | 39.94954 | -3.48691 | 26245 ft | 416 kts | 180° |
| 2026-05-06 03:26 | 39.92067 | -3.48300 | 26653 ft | 418 kts | 180° |
| 2026-05-06 03:27 | 39.89169 | -3.47903 | 27045 ft | 420 kts | 180° |
| 2026-05-06 03:27 | 39.86262 | -3.47506 | 27435 ft | 421 kts | 180° |
| 2026-05-06 03:27 | 39.83339 | -3.47110 | 27821 ft | 423 kts | 180° |
| 2026-05-06 03:27 | 39.80398 | -3.46715 | 28202 ft | 425 kts | 181° |
| 2026-05-06 03:28 | 39.77449 | -3.46362 | 28581 ft | 424 kts | 185° |
| 2026-05-06 03:28 | 39.74575 | -3.46778 | 28967 ft | 411 kts | 202° |
| 2026-05-06 03:28 | 39.72000 | -3.48235 | 29333 ft | 401 kts | 218° |
| 2026-05-06 03:28 | 39.69927 | -3.50522 | 29678 ft | 394 kts | 233° |
| 2026-05-06 03:29 | 39.68424 | -3.53514 | 30020 ft | 391 kts | 248° |
| 2026-05-06 03:29 | 39.67608 | -3.56828 | 30307 ft | 392 kts | 256° |
| 2026-05-06 03:29 | 39.66734 | -3.60183 | 30588 ft | 395 kts | 246° |
| 2026-05-06 03:29 | 39.65261 | -3.63200 | 30903 ft | 401 kts | 232° |
| 2026-05-06 03:30 | 39.63346 | -3.65864 | 31185 ft | 404 kts | 230° |
| 2026-05-06 03:30 | 39.61375 | -3.68478 | 31522 ft | 405 kts | 229° |
| 2026-05-06 03:30 | 39.59388 | -3.71062 | 31964 ft | 403 kts | 229° |
| 2026-05-06 03:30 | 39.57383 | -3.73598 | 32408 ft | 403 kts | 225° |
| 2026-05-06 03:31 | 39.55119 | -3.75770 | 32853 ft | 407 kts | 217° |
| 2026-05-06 03:31 | 39.52672 | -3.77620 | 33271 ft | 407 kts | 216° |
| 2026-05-06 03:31 | 39.50227 | -3.79470 | 33688 ft | 406 kts | 216° |
| 2026-05-06 03:31 | 39.47802 | -3.81320 | 34093 ft | 404 kts | 217° |
| 2026-05-06 03:32 | 39.45386 | -3.83166 | 34444 ft | 403 kts | 217° |
| 2026-05-06 03:32 | 39.42970 | -3.85011 | 34753 ft | 403 kts | 216° |
| 2026-05-06 03:32 | 39.40552 | -3.86855 | 35034 ft | 403 kts | 216° |
| 2026-05-06 03:32 | 39.38129 | -3.88697 | 35309 ft | 404 kts | 216° |
| 2026-05-06 03:33 | 39.35706 | -3.90536 | 35578 ft | 404 kts | 216° |
| 2026-05-06 03:33 | 39.33282 | -3.92374 | 35842 ft | 404 kts | 216° |
| 2026-05-06 03:33 | 39.30853 | -3.94212 | 36104 ft | 405 kts | 216° |
| 2026-05-06 03:33 | 39.28427 | -3.96046 | 36351 ft | 405 kts | 216° |
| 2026-05-06 03:34 | 39.25996 | -3.97887 | 36609 ft | 405 kts | 216° |
| 2026-05-06 03:34 | 39.23565 | -3.99726 | 36843 ft | 405 kts | 216° |
| 2026-05-06 03:34 | 39.21133 | -4.01567 | 36969 ft | 406 kts | 216° |
| 2026-05-06 03:34 | 39.18690 | -4.03415 | 36987 ft | 406 kts | 216° |
| 2026-05-06 03:35 | 39.13806 | -4.07085 | 36983 ft | 406 kts | 216° |
| 2026-05-06 03:35 | 39.08931 | -4.10758 | 36982 ft | 406 kts | 216° |
| 2026-05-06 03:36 | 39.04089 | -4.14394 | 36979 ft | 406 kts | 216° |
| 2026-05-06 03:36 | 38.99215 | -4.18054 | 36980 ft | 406 kts | 216° |
| 2026-05-06 03:37 | 38.94340 | -4.21707 | 36981 ft | 405 kts | 216° |
| 2026-05-06 03:37 | 38.89477 | -4.25343 | 36976 ft | 405 kts | 216° |
| 2026-05-06 03:38 | 38.84610 | -4.28978 | 36971 ft | 405 kts | 216° |
| 2026-05-06 03:38 | 38.79746 | -4.32604 | 36973 ft | 405 kts | 216° |
| 2026-05-06 03:39 | 38.74872 | -4.36232 | 36976 ft | 405 kts | 216° |
| 2026-05-06 03:39 | 38.69999 | -4.39852 | 36978 ft | 405 kts | 216° |
| 2026-05-06 03:40 | 38.65129 | -4.43469 | 36980 ft | 404 kts | 216° |
| 2026-05-06 03:40 | 38.60260 | -4.47074 | 36976 ft | 404 kts | 216° |
| 2026-05-06 03:41 | 38.55390 | -4.50673 | 36977 ft | 404 kts | 216° |
| 2026-05-06 03:41 | 38.50515 | -4.54271 | 36975 ft | 404 kts | 215° |
| 2026-05-06 03:42 | 38.45641 | -4.57864 | 36977 ft | 404 kts | 216° |
| 2026-05-06 03:42 | 38.40770 | -4.61454 | 36977 ft | 404 kts | 215° |
| 2026-05-06 03:43 | 38.35898 | -4.65038 | 36974 ft | 404 kts | 215° |
| 2026-05-06 03:43 | 38.30893 | -4.68334 | 36968 ft | 411 kts | 205° |
| 2026-05-06 03:44 | 38.25217 | -4.69851 | 36961 ft | 420 kts | 195° |
| 2026-05-06 03:44 | 38.19431 | -4.71028 | 36961 ft | 420 kts | 196° |
| 2026-05-06 03:45 | 38.13649 | -4.72208 | 36972 ft | 420 kts | 196° |
| 2026-05-06 03:45 | 38.07879 | -4.73391 | 36970 ft | 420 kts | 196° |
| 2026-05-06 03:46 | 38.02106 | -4.74572 | 36968 ft | 420 kts | 196° |
| 2026-05-06 03:46 | 37.96340 | -4.75744 | 36960 ft | 420 kts | 196° |
| 2026-05-06 03:47 | 37.90573 | -4.76910 | 36966 ft | 419 kts | 195° |
| 2026-05-06 03:47 | 37.84819 | -4.78076 | 36962 ft | 419 kts | 195° |
| 2026-05-06 03:48 | 37.79054 | -4.79246 | 36977 ft | 419 kts | 195° |
| 2026-05-06 03:48 | 37.76177 | -4.79833 | 36814 ft | 419 kts | 195° |
| 2026-05-06 03:48 | 37.73302 | -4.80418 | 36410 ft | 418 kts | 195° |
| 2026-05-06 03:49 | 37.70423 | -4.81004 | 35704 ft | 419 kts | 195° |
| 2026-05-06 03:49 | 37.67536 | -4.81589 | 34967 ft | 421 kts | 195° |
| 2026-05-06 03:49 | 37.64645 | -4.82172 | 34449 ft | 418 kts | 195° |
| 2026-05-06 03:49 | 37.61786 | -4.82743 | 33959 ft | 415 kts | 195° |
| 2026-05-06 03:50 | 37.58948 | -4.83307 | 33410 ft | 411 kts | 195° |
| 2026-05-06 03:50 | 37.56177 | -4.83855 | 32929 ft | 407 kts | 195° |
| 2026-05-06 03:50 | 37.53392 | -4.84409 | 32424 ft | 402 kts | 195° |
| 2026-05-06 03:50 | 37.50643 | -4.84961 | 31925 ft | 398 kts | 195° |
| 2026-05-06 03:51 | 37.47919 | -4.85512 | 31440 ft | 395 kts | 196° |
| 2026-05-06 03:51 | 37.45219 | -4.86060 | 30956 ft | 391 kts | 196° |
| 2026-05-06 03:51 | 37.42540 | -4.86599 | 30478 ft | 389 kts | 195° |
| 2026-05-06 03:51 | 37.39880 | -4.87132 | 29988 ft | 386 kts | 195° |
| 2026-05-06 03:52 | 37.37239 | -4.87662 | 29480 ft | 383 kts | 195° |
| 2026-05-06 03:52 | 37.34620 | -4.88183 | 29019 ft | 379 kts | 195° |
| 2026-05-06 03:52 | 37.32031 | -4.88700 | 28570 ft | 375 kts | 195° |
| 2026-05-06 03:52 | 37.29460 | -4.89216 | 28122 ft | 373 kts | 195° |
| 2026-05-06 03:53 | 37.26911 | -4.89729 | 27697 ft | 370 kts | 195° |
| 2026-05-06 03:53 | 37.24376 | -4.90238 | 27278 ft | 368 kts | 195° |
| 2026-05-06 03:53 | 37.21855 | -4.90742 | 26864 ft | 366 kts | 195° |
| 2026-05-06 03:53 | 37.19342 | -4.91243 | 26454 ft | 364 kts | 195° |
| 2026-05-06 03:54 | 37.16848 | -4.91740 | 26045 ft | 362 kts | 194° |
| 2026-05-06 03:54 | 37.14371 | -4.92230 | 25636 ft | 360 kts | 194° |
| 2026-05-06 03:54 | 37.11902 | -4.92716 | 25239 ft | 358 kts | 194° |
| 2026-05-06 03:54 | 37.09451 | -4.93198 | 24829 ft | 356 kts | 194° |
| 2026-05-06 03:55 | 37.07015 | -4.93679 | 24418 ft | 354 kts | 194° |
| 2026-05-06 03:55 | 37.05396 | -4.93908 | 24143 ft | 355 kts | 188° |
| 2026-05-06 03:55 | 37.02074 | -4.93814 | 23565 ft | 357 kts | 183° |
| 2026-05-06 03:55 | 36.99596 | -4.93682 | 23085 ft | 355 kts | 183° |
| 2026-05-06 03:56 | 36.97984 | -4.93596 | 22792 ft | 353 kts | 183° |
| 2026-05-06 03:56 | 36.95545 | -4.93468 | 22349 ft | 350 kts | 182° |
| 2026-05-06 03:56 | 36.93123 | -4.93342 | 21904 ft | 347 kts | 182° |
| 2026-05-06 03:56 | 36.90714 | -4.93218 | 21449 ft | 345 kts | 182° |
| 2026-05-06 03:57 | 36.88322 | -4.93096 | 21017 ft | 343 kts | 182° |
| 2026-05-06 03:57 | 36.85938 | -4.92973 | 20575 ft | 342 kts | 182° |
| 2026-05-06 03:57 | 36.83569 | -4.92851 | 20125 ft | 340 kts | 182° |
| 2026-05-06 03:57 | 36.81207 | -4.92731 | 19680 ft | 340 kts | 182° |
| 2026-05-06 03:58 | 36.78848 | -4.92611 | 19230 ft | 339 kts | 182° |
| 2026-05-06 03:58 | 36.76497 | -4.92490 | 18781 ft | 339 kts | 181° |
| 2026-05-06 03:58 | 36.74136 | -4.92365 | 18333 ft | 339 kts | 181° |
| 2026-05-06 03:58 | 36.71783 | -4.92242 | 17848 ft | 338 kts | 181° |
| 2026-05-06 03:59 | 36.69441 | -4.92121 | 17391 ft | 335 kts | 181° |
| 2026-05-06 03:59 | 36.67116 | -4.92000 | 16943 ft | 333 kts | 181° |
| 2026-05-06 03:59 | 36.64807 | -4.91880 | 16502 ft | 331 kts | 181° |
| 2026-05-06 03:59 | 36.62508 | -4.91764 | 16064 ft | 330 kts | 181° |
| 2026-05-06 04:00 | 36.60217 | -4.91648 | 15625 ft | 329 kts | 181° |
| 2026-05-06 04:00 | 36.57933 | -4.91532 | 15177 ft | 327 kts | 181° |
| 2026-05-06 04:00 | 36.55659 | -4.91416 | 14753 ft | 326 kts | 181° |
| 2026-05-06 04:00 | 36.53399 | -4.91299 | 14323 ft | 325 kts | 180° |
| 2026-05-06 04:01 | 36.51135 | -4.91182 | 13889 ft | 325 kts | 180° |
| 2026-05-06 04:01 | 36.48883 | -4.91065 | 13441 ft | 323 kts | 180° |
| 2026-05-06 04:01 | 36.46642 | -4.90949 | 13009 ft | 321 kts | 180° |
| 2026-05-06 04:01 | 36.44414 | -4.90835 | 12591 ft | 319 kts | 180° |
| 2026-05-06 04:02 | 36.42206 | -4.90723 | 12183 ft | 317 kts | 180° |
| 2026-05-06 04:02 | 36.40011 | -4.90609 | 11762 ft | 315 kts | 180° |
| 2026-05-06 04:02 | 36.37828 | -4.90498 | 11344 ft | 313 kts | 181° |
| 2026-05-06 04:02 | 36.35654 | -4.90388 | 10942 ft | 312 kts | 180° |
| 2026-05-06 04:03 | 36.33491 | -4.90277 | 10538 ft | 311 kts | 180° |
| 2026-05-06 04:03 | 36.31335 | -4.90167 | 10134 ft | 309 kts | 181° |
| 2026-05-06 04:03 | 36.29205 | -4.90056 | 9919 ft | 301 kts | 181° |
| 2026-05-06 04:03 | 36.27138 | -4.89948 | 9645 ft | 296 kts | 180° |
| 2026-05-06 04:04 | 36.25081 | -4.89845 | 9231 ft | 295 kts | 180° |
| 2026-05-06 04:04 | 36.23036 | -4.89741 | 8878 ft | 292 kts | 180° |
| 2026-05-06 04:04 | 36.21006 | -4.89637 | 8477 ft | 291 kts | 180° |
| 2026-05-06 04:04 | 36.19006 | -4.89581 | 8241 ft | 283 kts | 188° |
| 2026-05-06 04:05 | 36.17172 | -4.90278 | 7924 ft | 273 kts | 214° |
| 2026-05-06 04:05 | 36.15802 | -4.91839 | 7560 ft | 268 kts | 234° |
| 2026-05-06 04:05 | 36.14533 | -4.93527 | 7176 ft | 270 kts | 219° |
| 2026-05-06 04:05 | 36.13096 | -4.95001 | 6815 ft | 267 kts | 233° |
| 2026-05-06 04:06 | 36.12412 | -4.97070 | 6471 ft | 262 kts | 268° |
| 2026-05-06 04:06 | 36.12831 | -4.99224 | 6064 ft | 263 kts | 302° |
| 2026-05-06 04:06 | 36.14205 | -5.00682 | 5653 ft | 266 kts | 338° |
| 2026-05-06 04:06 | 36.15981 | -5.01341 | 5239 ft | 267 kts | 339° |
| 2026-05-06 04:07 | 36.17497 | -5.02573 | 5031 ft | 258 kts | 310° |
| 2026-05-06 04:07 | 36.18311 | -5.04501 | 4759 ft | 253 kts | 281° |
| 2026-05-06 04:07 | 36.18436 | -5.06619 | 4389 ft | 242 kts | 269° |
| 2026-05-06 04:07 | 36.18253 | -5.08648 | 4042 ft | 234 kts | 258° |
| 2026-05-06 04:08 | 36.17838 | -5.10596 | 3691 ft | 232 kts | 254° |
| 2026-05-06 04:08 | 36.17368 | -5.12471 | 3327 ft | 224 kts | 252° |
| 2026-05-06 04:08 | 36.16847 | -5.14261 | 2950 ft | 218 kts | 251° |
| 2026-05-06 04:08 | 36.16367 | -5.16010 | 2573 ft | 211 kts | 262° |
| 2026-05-06 04:09 | 36.16178 | -5.17791 | 2272 ft | 206 kts | 264° |
| 2026-05-06 04:09 | 36.15986 | -5.19552 | 2045 ft | 203 kts | 264° |
| 2026-05-06 04:09 | 36.15795 | -5.21234 | 1778 ft | 192 kts | 264° |
| 2026-05-06 04:09 | 36.15620 | -5.22791 | 1534 ft | 179 kts | 264° |
| 2026-05-06 04:10 | 36.15481 | -5.24253 | 1248 ft | 164 kts | 267° |
| 2026-05-06 04:10 | 36.15424 | -5.25576 | 1048 ft | 143 kts | 267° |
| 2026-05-06 04:10 | 36.15389 | -5.26729 | 984 ft | 128 kts | 269° |
| 2026-05-06 04:10 | 36.15370 | -5.27836 | 1021 ft | 130 kts | 268° |
| 2026-05-06 04:11 | 36.15347 | -5.28942 | 891 ft | 128 kts | 267° |
| 2026-05-06 04:11 | 36.15303 | -5.30046 | 744 ft | 128 kts | 266° |
| 2026-05-06 04:11 | 36.15263 | -5.31146 | 570 ft | 128 kts | 266° |
| 2026-05-06 04:11 | 36.15217 | -5.32249 | 381 ft | 127 kts | 266° |
| 2026-05-06 04:12 | 36.15180 | -5.33335 | 189 ft | 127 kts | 265° |
| 2026-05-06 04:12 | 36.15139 | -5.34420 | 21 ft | 125 kts | 267° |
| 2026-05-06 04:12 | 36.15114 | -5.35221 | 22 ft | 50 kts | 268° |
| 2026-05-06 04:12 | 36.15103 | -5.35447 | 21 ft | 22 kts | 265° |
| 2026-05-06 04:13 | 36.15095 | -5.35642 | 20 ft | 23 kts | 273° |
| 2026-05-06 04:13 | 36.15085 | -5.35843 | 21 ft | 23 kts | 248° |
| 2026-05-06 04:13 | 36.15074 | -5.35944 | 21 ft | 1 kts | 338° |
| 2026-05-06 04:13 | 36.15084 | -5.35922 | 20 ft | 11 kts | 65° |
| 2026-05-06 04:14 | 36.15095 | -5.35775 | 19 ft | 20 kts | 87° |
| 2026-05-06 04:14 | 36.15101 | -5.35582 | 24 ft | 25 kts | 88° |
| 2026-05-06 04:14 | 36.15108 | -5.35354 | 22 ft | 29 kts | 89° |
| 2026-05-06 04:14 | 36.15115 | -5.35090 | 24 ft | 33 kts | 78° |
| 2026-05-06 04:15 | 36.15124 | -5.34837 | 21 ft | 27 kts | 89° |
| 2026-05-06 04:15 | 36.15148 | -5.34669 | 23 ft | 11 kts | 27° |
| 2026-05-06 04:15 | 36.15222 | -5.34669 | 19 ft | 14 kts | 18° |
| 2026-05-06 04:15 | 36.15290 | -5.34667 | 17 ft | 4 kts | 358° |
| 2026-05-06 04:16 | 36.15306 | -5.34668 | 17 ft | 0 kts | 358° |